Grand Celebration — C6BP6 — position and weather

sailwx.info

Track history (hours):
 
Tides and Currents Weather Stations Pressure Air Temp Water Temp Dewpoint Dewpoint Depression Visibility Wind Speed Wind Dir Waves Ship Positions

Grand Celebration

Last reported at 2018-Aug-12 22:43 UTC. Time now 2018-Aug-14 07:04 UTC.
Position N 26°44' W 079°55'.

Length 223 m; draft 7.9 m.

Type: Ship. MMSI: 311000328.

Date/timePositionNaut miles runAvg speedWind from/ knotsBaromVisibWave heightAir tempDewpointWater temp
2018-Aug-12 22:43N 26°44' W 079°55'2 8.1
2018-Aug-12 22:29N 26°45' W 079°57'4 7.9
2018-Aug-12 22:00N 26°46' W 080°01'2 0.3
2018-Aug-12 14:15N 26°46' W 080°03'0 0.0
2018-Aug-12 13:08N 26°46' W 080°03'0 0.0
2018-Aug-12 12:56N 26°46' W 080°03'0 0.0
2018-Aug-12 12:29N 26°46' W 080°03'0 0.0
2018-Aug-12 11:59N 26°46' W 080°03'0 0.0
2018-Aug-12 11:29N 26°46' W 080°03'2 4.8
2018-Aug-12 11:01N 26°46' W 080°01'5 9.5
2018-Aug-12 10:31N 26°44' W 079°56'4 7.4
2018-Aug-12 09:54N 26°44' W 079°51'3 0.1
2018-Aug-10 23:21N 26°43' W 079°47'5 9.3
2018-Aug-10 22:46N 26°44' W 079°53'310.9
2018-Aug-10 22:29N 26°45' W 079°56'4 8.3
2018-Aug-10 22:00N 26°46' W 080°01'2 2.7
2018-Aug-10 21:12N 26°46' W 080°03'0 0.0
2018-Aug-10 20:08N 26°46' W 080°03'0 0.0
2018-Aug-10 19:52N 26°46' W 080°03'0 0.0
2018-Aug-10 19:19N 26°46' W 080°03'0 0.0
2018-Aug-10 18:57N 26°46' W 080°03'0 0.0
2018-Aug-10 18:30N 26°46' W 080°03'0 0.0
2018-Aug-10 16:03N 26°46' W 080°03'0 0.0
2018-Aug-10 15:58N 26°46' W 080°03'0 0.0
2018-Aug-10 15:29N 26°46' W 080°03'0 0.0
2018-Aug-10 15:00N 26°46' W 080°03'0 0.0
2018-Aug-10 14:25N 26°46' W 080°03'0 0.0
2018-Aug-10 13:44N 26°46' W 080°03'0 0.0
2018-Aug-10 13:23N 26°46' W 080°03'0 0.0
2018-Aug-10 13:00N 26°46' W 080°03'0 0.0
2018-Aug-10 12:29N 26°46' W 080°03'0 0.0
2018-Aug-10 12:00N 26°46' W 080°03'0 0.0
2018-Aug-10 11:30N 26°46' W 080°03'0 0.0
2018-Aug-10 11:00N 26°46' W 080°03'2 4.2
2018-Aug-10 10:31N 26°46' W 080°01'510.3
2018-Aug-10 10:00N 26°43' W 079°56'4 8.4
2018-Aug-10 09:30N 26°42' W 079°51'4 8.0
2018-Aug-10 09:00N 26°42' W 079°47'611.5
2018-Aug-10 08:31N 26°41' W 079°41'611.7
2018-Aug-10 08:00N 26°40' W 079°34'612.0
2018-Aug-10 07:31N 26°38' W 079°28'611.9
2018-Aug-10 06:59N 26°36' W 079°21'612.3
2018-Aug-10 06:30N 26°34' W 079°15'1511.6
2018-Aug-10 05:11N 26°28' W 078°59'210.6
2018-Aug-10 04:58N 26°27' W 078°57'35 1.3
2018-Aug-09 01:20N 26°39' W 079°34'2 5.1
2018-Aug-09 01:00N 26°40' W 079°35'20 9.4
2018-Aug-08 22:53N 26°45' W 079°57'3 8.8
2018-Aug-08 22:31N 26°46' W 080°01'2 0.2
2018-Aug-08 12:21N 26°46' W 080°03'0 0.0
2018-Aug-08 11:45N 26°46' W 080°03'0 0.0
2018-Aug-08 11:28N 26°46' W 080°03'0 0.6
2018-Aug-08 11:01N 26°46' W 080°03'4 8.0
2018-Aug-08 10:29N 26°46' W 079°58'1 0.0
2018-Aug-06 22:17N 26°45' W 079°58'2 7.9
2018-Aug-06 22:00N 26°46' W 080°01'2 0.2
2018-Aug-06 11:23N 26°46' W 080°03'2 5.9
2018-Aug-06 11:00N 26°46' W 080°01'6 0.2
2018-Aug-04 22:48N 26°44' W 079°54'411.7
2018-Aug-04 22:27N 26°46' W 079°58'3 6.5
2018-Aug-04 22:00N 26°47' W 080°01'2 4.4
2018-Aug-04 21:30N 26°46' W 080°03'0 0.0
2018-Aug-04 20:57N 26°46' W 080°03'0 0.0
2018-Aug-04 13:21N 26°46' W 080°03'0 0.0
2018-Aug-04 12:57N 26°46' W 080°03'0 0.0
2018-Aug-04 12:24N 26°46' W 080°03'0 0.0
2018-Aug-04 11:36N 26°46' W 080°03'0 0.2
2018-Aug-04 11:30N 26°46' W 080°03'3 5.4
2018-Aug-04 11:00N 26°46' W 080°00'5 9.2
2018-Aug-04 10:29N 26°44' W 079°55'  
Track history (hours):
 
Tides and Currents Weather Stations Pressure Air Temp Water Temp Dewpoint Dewpoint Depression Visibility Wind Speed Wind Dir Waves Ship Positions

Grand Celebration

Last reported at 2018-Aug-12 22:43 UTC. Time now 2018-Aug-14 07:04 UTC.
Position N 26°44' W 079°55'.

Length 223 m; draft 7.9 m.

Type: Ship. MMSI: 311000328.

Date/timePositionNaut miles runAvg speedWind from/ knotsBaromVisibWave heightAir tempDewpointWater temp
2018-Aug-12 22:43N 26°44' W 079°55'2 8.1
2018-Aug-12 22:29N 26°45' W 079°57'4 7.9
2018-Aug-12 22:00N 26°46' W 080°01'2 0.3
2018-Aug-12 14:15N 26°46' W 080°03'0 0.0
2018-Aug-12 13:08N 26°46' W 080°03'0 0.0
2018-Aug-12 12:56N 26°46' W 080°03'0 0.0
2018-Aug-12 12:29N 26°46' W 080°03'0 0.0
2018-Aug-12 11:59N 26°46' W 080°03'0 0.0
2018-Aug-12 11:29N 26°46' W 080°03'2 4.8
2018-Aug-12 11:01N 26°46' W 080°01'5 9.5
2018-Aug-12 10:31N 26°44' W 079°56'4 7.4
2018-Aug-12 09:54N 26°44' W 079°51'3 0.1
2018-Aug-10 23:21N 26°43' W 079°47'5 9.3
2018-Aug-10 22:46N 26°44' W 079°53'310.9
2018-Aug-10 22:29N 26°45' W 079°56'4 8.3
2018-Aug-10 22:00N 26°46' W 080°01'2 2.7
2018-Aug-10 21:12N 26°46' W 080°03'0 0.0
2018-Aug-10 20:08N 26°46' W 080°03'0 0.0
2018-Aug-10 19:52N 26°46' W 080°03'0 0.0
2018-Aug-10 19:19N 26°46' W 080°03'0 0.0
2018-Aug-10 18:57N 26°46' W 080°03'0 0.0
2018-Aug-10 18:30N 26°46' W 080°03'0 0.0
2018-Aug-10 16:03N 26°46' W 080°03'0 0.0
2018-Aug-10 15:58N 26°46' W 080°03'0 0.0
2018-Aug-10 15:29N 26°46' W 080°03'0 0.0
2018-Aug-10 15:00N 26°46' W 080°03'0 0.0
2018-Aug-10 14:25N 26°46' W 080°03'0 0.0
2018-Aug-10 13:44N 26°46' W 080°03'0 0.0
2018-Aug-10 13:23N 26°46' W 080°03'0 0.0
2018-Aug-10 13:00N 26°46' W 080°03'0 0.0
2018-Aug-10 12:29N 26°46' W 080°03'0 0.0
2018-Aug-10 12:00N 26°46' W 080°03'0 0.0
2018-Aug-10 11:30N 26°46' W 080°03'0 0.0
2018-Aug-10 11:00N 26°46' W 080°03'2 4.2
2018-Aug-10 10:31N 26°46' W 080°01'510.3
2018-Aug-10 10:00N 26°43' W 079°56'4 8.4
2018-Aug-10 09:30N 26°42' W 079°51'4 8.0
2018-Aug-10 09:00N 26°42' W 079°47'611.5
2018-Aug-10 08:31N 26°41' W 079°41'611.7
2018-Aug-10 08:00N 26°40' W 079°34'612.0
2018-Aug-10 07:31N 26°38' W 079°28'611.9
2018-Aug-10 06:59N 26°36' W 079°21'612.3
2018-Aug-10 06:30N 26°34' W 079°15'1511.6
2018-Aug-10 05:11N 26°28' W 078°59'210.6
2018-Aug-10 04:58N 26°27' W 078°57'35 1.3
2018-Aug-09 01:20N 26°39' W 079°34'2 5.1
2018-Aug-09 01:00N 26°40' W 079°35'20 9.4
2018-Aug-08 22:53N 26°45' W 079°57'3 8.8
2018-Aug-08 22:31N 26°46' W 080°01'2 0.2
2018-Aug-08 12:21N 26°46' W 080°03'0 0.0
2018-Aug-08 11:45N 26°46' W 080°03'0 0.0
2018-Aug-08 11:28N 26°46' W 080°03'0 0.6
2018-Aug-08 11:01N 26°46' W 080°03'4 8.0
2018-Aug-08 10:29N 26°46' W 079°58'1 0.0
2018-Aug-06 22:17N 26°45' W 079°58'2 7.9
2018-Aug-06 22:00N 26°46' W 080°01'2 0.2
2018-Aug-06 11:23N 26°46' W 080°03'2 5.9
2018-Aug-06 11:00N 26°46' W 080°01'6 0.2
2018-Aug-04 22:48N 26°44' W 079°54'411.7
2018-Aug-04 22:27N 26°46' W 079°58'3 6.5
2018-Aug-04 22:00N 26°47' W 080°01'2 4.4
2018-Aug-04 21:30N 26°46' W 080°03'0 0.0
2018-Aug-04 20:57N 26°46' W 080°03'0 0.0
2018-Aug-04 13:21N 26°46' W 080°03'0 0.0
2018-Aug-04 12:57N 26°46' W 080°03'0 0.0
2018-Aug-04 12:24N 26°46' W 080°03'0 0.0
2018-Aug-04 11:36N 26°46' W 080°03'0 0.2
2018-Aug-04 11:30N 26°46' W 080°03'3 5.4
2018-Aug-04 11:00N 26°46' W 080°00'5 9.2
2018-Aug-04 10:29N 26°44' W 079°55'  

Dump ship's entire track history